createdAt,value
2023-05-04T00:00:53.507Z,84.55
2023-05-04T00:03:19.767Z,82.77
2023-05-04T00:05:45.870Z,82.54
2023-05-04T00:08:11.968Z,82.15
2023-05-04T00:10:38.038Z,84.83
2023-05-04T00:13:04.208Z,86.07
2023-05-04T00:15:30.368Z,85.52
2023-05-04T00:17:56.649Z,86.09
2023-05-04T00:20:22.733Z,84.99
2023-05-04T00:22:48.833Z,85.48
2023-05-04T00:25:15.010Z,84.80
2023-05-04T00:27:41.058Z,85.05
2023-05-04T00:30:08.059Z,86.07
2023-05-04T00:32:34.622Z,86.08
2023-05-04T00:35:00.862Z,85.92
2023-05-04T00:37:26.970Z,94.44
2023-05-04T00:39:53.086Z,90.47
2023-05-04T00:42:19.113Z,98.03
2023-05-04T00:44:45.152Z,97.15
2023-05-04T00:47:11.742Z,100.00
2023-05-04T00:49:37.897Z,93.91
2023-05-04T00:52:04.671Z,91.73
2023-05-04T00:54:31.335Z,88.63
2023-05-04T00:56:57.387Z,88.86
2023-05-04T00:59:23.446Z,86.47
2023-05-04T01:01:49.589Z,86.22
2023-05-04T01:04:16.040Z,87.34
2023-05-04T01:06:55.742Z,87.08
2023-05-04T01:09:26.667Z,87.21
2023-05-04T01:12:05.878Z,87.69
2023-05-04T01:14:35.772Z,96.18
2023-05-04T01:17:04.541Z,91.63
2023-05-04T01:19:31.118Z,91.04
2023-05-04T01:21:57.775Z,88.10
2023-05-04T01:24:24.941Z,94.10
2023-05-04T01:26:55.228Z,98.27
2023-05-04T01:29:28.764Z,91.87
2023-05-04T01:31:55.714Z,90.44
2023-05-04T01:34:22.468Z,88.74
2023-05-04T01:36:49.053Z,90.60
2023-05-04T01:39:15.303Z,88.59
2023-05-04T01:41:41.504Z,88.91
2023-05-04T01:44:07.674Z,89.33
2023-05-04T01:46:33.812Z,88.56
2023-05-04T01:49:00.019Z,88.03
2023-05-04T01:51:26.087Z,87.62
2023-05-04T01:53:52.167Z,88.59
2023-05-04T01:56:18.570Z,88.82
2023-05-04T01:58:44.904Z,87.59
2023-05-04T02:01:11.136Z,87.39
2023-05-04T02:03:37.401Z,87.07
2023-05-04T02:06:03.548Z,88.66
2023-05-04T02:08:29.684Z,89.31
2023-05-04T02:10:55.815Z,88.96
2023-05-04T02:13:22.416Z,89.69
2023-05-04T02:15:48.483Z,89.43
2023-05-04T02:18:14.534Z,88.28
2023-05-04T02:20:40.592Z,90.26
2023-05-04T02:23:06.709Z,90.79
2023-05-04T02:25:32.780Z,90.63
2023-05-04T02:27:58.859Z,90.73
2023-05-04T02:30:24.940Z,90.44
2023-05-04T02:32:51.051Z,89.57
2023-05-04T02:35:17.213Z,90.49
2023-05-04T02:37:43.302Z,90.45
2023-05-04T02:40:09.996Z,89.62
2023-05-04T02:42:36.032Z,90.89
2023-05-04T02:45:02.100Z,90.90
2023-05-04T02:47:28.255Z,91.12
2023-05-04T02:49:54.357Z,91.74
2023-05-04T02:52:20.407Z,89.86
2023-05-04T02:54:46.484Z,91.91
2023-05-04T02:57:12.548Z,92.32
2023-05-04T02:59:38.653Z,91.72
2023-05-04T03:02:04.794Z,90.80
2023-05-04T03:04:30.952Z,92.32
2023-05-04T03:06:57.047Z,93.97
2023-05-04T03:09:23.160Z,95.37
2023-05-04T03:11:49.285Z,94.31
2023-05-04T03:14:15.605Z,94.58
2023-05-04T03:16:41.713Z,95.26
2023-05-04T03:19:07.840Z,96.61
2023-05-04T03:21:33.901Z,95.68
2023-05-04T03:23:59.934Z,97.83
2023-05-04T03:26:26.033Z,96.84
2023-05-04T03:28:52.337Z,95.85
2023-05-04T03:31:18.430Z,95.46
2023-05-04T03:33:44.650Z,96.38
2023-05-04T03:36:10.817Z,95.31
2023-05-04T03:38:36.915Z,98.53
2023-05-04T03:41:02.957Z,97.64
2023-05-04T03:43:29.022Z,99.56
2023-05-04T03:45:55.149Z,96.27
2023-05-04T03:48:21.284Z,97.93
2023-05-04T03:50:47.379Z,97.17
2023-05-04T03:53:13.452Z,97.53
2023-05-04T03:55:39.534Z,96.85
2023-05-04T03:58:05.595Z,100.00
2023-05-04T04:00:31.779Z,100.00
2023-05-04T04:02:57.929Z,99.93
2023-05-04T04:05:24.076Z,99.08
2023-05-04T04:07:50.258Z,99.05
2023-05-04T04:10:16.319Z,100.00
2023-05-04T04:12:42.536Z,100.00
2023-05-04T04:15:09.028Z,100.00
2023-05-04T04:17:35.175Z,98.15
2023-05-04T04:20:01.236Z,97.43
2023-05-04T04:22:27.314Z,96.83
2023-05-04T04:24:53.363Z,97.56
2023-05-04T04:27:19.915Z,98.87
2023-05-04T04:29:46.115Z,97.42
2023-05-04T04:32:12.658Z,96.95
2023-05-04T04:34:39.091Z,95.85
2023-05-04T04:37:05.310Z,96.50
2023-05-04T04:39:32.031Z,96.79
2023-05-04T04:41:58.172Z,96.24
2023-05-04T04:44:24.316Z,96.67
2023-05-04T04:46:50.832Z,96.42
2023-05-04T04:49:17.188Z,96.54
2023-05-04T04:51:43.827Z,96.66
2023-05-04T04:54:10.580Z,97.45
2023-05-04T04:56:39.851Z,98.13
2023-05-04T04:59:06.404Z,95.58
2023-05-04T05:01:32.759Z,95.80
2023-05-04T05:03:59.338Z,95.35
2023-05-04T05:06:25.801Z,93.80
2023-05-04T05:08:52.566Z,94.06
2023-05-04T05:11:18.706Z,94.78
2023-05-04T05:13:44.836Z,92.13
2023-05-04T05:16:10.994Z,95.13
2023-05-04T05:18:37.096Z,91.81
2023-05-04T05:21:03.483Z,90.64
2023-05-04T05:23:29.532Z,91.53
2023-05-04T05:25:56.006Z,91.18
2023-05-04T05:28:22.289Z,89.66
2023-05-04T05:30:51.125Z,90.50
2023-05-04T05:33:17.703Z,91.88
2023-05-04T05:35:44.269Z,89.62
2023-05-04T05:38:10.787Z,93.61
2023-05-04T05:40:36.881Z,90.70
2023-05-04T05:43:04.800Z,87.71
2023-05-04T05:45:30.871Z,87.78
2023-05-04T05:47:57.004Z,87.46
2023-05-04T05:50:23.598Z,85.90
2023-05-04T05:52:49.973Z,84.64
2023-05-04T05:55:16.223Z,83.93
2023-05-04T05:57:42.278Z,86.83
2023-05-04T06:00:08.874Z,88.66
2023-05-04T06:02:35.098Z,85.86
2023-05-04T06:05:01.811Z,85.25
2023-05-04T06:07:28.090Z,82.73
2023-05-04T06:09:54.182Z,89.21
2023-05-04T06:12:20.745Z,85.78
2023-05-04T06:14:47.280Z,84.32
2023-05-04T06:17:13.440Z,83.49
2023-05-04T06:19:39.878Z,83.71
2023-05-04T06:22:06.044Z,82.41
2023-05-04T06:24:32.230Z,87.05
2023-05-04T06:26:58.311Z,82.76
2023-05-04T06:29:24.851Z,84.38
2023-05-04T06:31:51.132Z,83.57
2023-05-04T06:34:17.571Z,79.52
2023-05-04T06:36:44.009Z,79.67
2023-05-04T06:39:10.379Z,84.29
2023-05-04T06:41:36.499Z,81.14
2023-05-04T06:44:06.791Z,79.07
2023-05-04T06:46:38.966Z,78.15
2023-05-04T06:49:05.107Z,75.33
2023-05-04T06:51:31.515Z,80.02
2023-05-04T06:53:59.039Z,82.84
2023-05-04T06:56:25.283Z,84.19
2023-05-04T06:58:51.474Z,76.73
2023-05-04T07:01:18.479Z,77.33
2023-05-04T07:03:44.765Z,80.78
2023-05-04T07:06:10.912Z,74.88
2023-05-04T07:08:36.983Z,74.71
2023-05-04T07:11:03.277Z,72.32
2023-05-04T07:13:29.354Z,71.57
2023-05-04T07:15:55.714Z,69.05
2023-05-04T07:18:22.359Z,67.45
2023-05-04T07:20:48.451Z,70.46
2023-05-04T07:23:14.512Z,68.58
2023-05-04T07:25:40.578Z,66.98
2023-05-04T07:28:06.685Z,69.92
2023-05-04T07:30:32.760Z,69.37
2023-05-04T07:32:58.838Z,65.56
2023-05-04T07:35:24.998Z,69.56
2023-05-04T07:37:51.085Z,66.86
2023-05-04T07:40:17.341Z,64.25
2023-05-04T07:42:43.467Z,64.98
2023-05-04T07:45:09.831Z,60.86
2023-05-04T07:47:36.506Z,61.65
2023-05-04T07:50:03.722Z,62.49
2023-05-04T07:52:30.001Z,60.40
2023-05-04T07:54:56.067Z,60.91
2023-05-04T07:57:22.272Z,60.04
2023-05-04T07:59:48.307Z,59.83
2023-05-04T08:02:14.493Z,60.61
2023-05-04T08:04:40.620Z,60.69
2023-05-04T08:09:32.706Z,58.65
2023-05-04T08:11:58.826Z,60.76
2023-05-04T08:14:24.934Z,59.31
2023-05-04T08:16:51.004Z,59.52
2023-05-04T08:19:18.244Z,57.37
2023-05-04T08:21:44.323Z,58.74
2023-05-04T08:24:10.704Z,57.04
2023-05-04T08:26:37.771Z,58.08
2023-05-04T08:29:06.750Z,57.10
2023-05-04T08:31:33.531Z,55.08
2023-05-04T08:34:00.271Z,55.76
2023-05-04T08:36:26.839Z,55.12
2023-05-04T08:38:53.059Z,55.24
2023-05-04T08:41:19.232Z,55.16
2023-05-04T08:43:46.019Z,53.80
2023-05-04T08:46:12.642Z,53.97
2023-05-04T08:48:38.874Z,55.82
2023-05-04T08:51:06.006Z,53.55
2023-05-04T08:53:37.203Z,54.13
2023-05-04T08:56:08.518Z,54.69
2023-05-04T08:58:37.167Z,54.58
2023-05-04T09:01:06.470Z,52.39
2023-05-04T09:03:33.384Z,55.95
2023-05-04T09:05:59.658Z,53.62
2023-05-04T09:08:26.202Z,53.46
2023-05-04T09:10:52.308Z,53.96
2023-05-04T09:13:18.541Z,53.61
2023-05-04T09:15:57.655Z,53.97
2023-05-04T09:18:24.148Z,53.12
2023-05-04T09:20:50.247Z,52.70
2023-05-04T09:23:17.256Z,52.06
2023-05-04T09:25:48.043Z,50.65
2023-05-04T09:28:15.331Z,53.45
2023-05-04T09:30:42.181Z,51.03
2023-05-04T09:33:08.784Z,50.81
2023-05-04T09:35:34.869Z,50.96
2023-05-04T09:38:00.945Z,51.32
2023-05-04T09:40:35.727Z,51.58
2023-05-04T09:43:01.991Z,50.88
2023-05-04T09:45:49.628Z,51.19
2023-05-04T09:48:16.839Z,50.55
2023-05-04T09:50:52.126Z,49.70
2023-05-04T09:53:20.777Z,49.52
2023-05-04T09:55:47.511Z,50.34
2023-05-04T09:58:17.908Z,49.38
2023-05-04T10:00:44.961Z,49.70
2023-05-04T10:03:11.528Z,49.63
2023-05-04T10:05:38.399Z,48.58
2023-05-04T10:08:05.145Z,48.73
2023-05-04T10:10:31.321Z,48.60
2023-05-04T10:12:57.394Z,49.63
2023-05-04T10:15:24.114Z,49.05
2023-05-04T10:18:02.886Z,49.62
2023-05-04T10:20:54.303Z,48.83
2023-05-04T10:23:31.886Z,50.14
2023-05-04T10:26:41.049Z,48.79
2023-05-04T10:29:24.203Z,48.42
2023-05-04T10:31:51.190Z,48.50
2023-05-04T10:34:32.215Z,48.68
2023-05-04T10:36:59.439Z,51.11
2023-05-04T10:39:29.661Z,48.94
2023-05-04T10:42:03.810Z,48.06
2023-05-04T10:44:32.323Z,47.36
2023-05-04T10:47:04.554Z,47.40
2023-05-04T10:49:32.068Z,47.27
2023-05-04T10:52:12.935Z,47.11
2023-05-04T10:54:40.593Z,46.50
2023-05-04T10:57:11.777Z,46.84
2023-05-04T10:59:38.804Z,46.40
2023-05-04T11:02:07.077Z,45.86
2023-05-04T11:04:34.104Z,46.22
2023-05-04T11:07:01.862Z,45.38
2023-05-04T11:09:35.446Z,45.74
2023-05-04T11:12:01.938Z,45.16
2023-05-04T11:14:28.476Z,44.61
2023-05-04T11:17:23.945Z,43.88
2023-05-04T11:19:53.857Z,43.61
2023-05-04T11:22:20.107Z,43.40
2023-05-04T11:24:47.879Z,43.94
2023-05-04T11:27:24.750Z,43.90
2023-05-04T11:29:55.135Z,43.81
2023-05-04T11:32:22.022Z,42.68
2023-05-04T11:34:48.298Z,43.13
2023-05-04T11:37:14.376Z,42.97
2023-05-04T11:39:40.612Z,41.75
2023-05-04T11:42:07.910Z,41.43
2023-05-04T11:44:35.434Z,40.94
2023-05-04T11:47:01.652Z,41.51
2023-05-04T11:49:30.364Z,41.41
2023-05-04T11:52:09.202Z,41.54
2023-05-04T11:54:36.345Z,41.02
2023-05-04T11:57:03.399Z,40.91
2023-05-04T11:59:32.539Z,40.09
2023-05-04T12:01:58.818Z,40.27
2023-05-04T12:04:30.209Z,39.89
2023-05-04T12:06:56.515Z,39.64
2023-05-04T12:09:22.664Z,39.82
2023-05-04T12:11:55.717Z,39.91
2023-05-04T12:14:23.747Z,39.89
2023-05-04T12:16:54.337Z,39.41
2023-05-04T12:19:20.382Z,38.23
2023-05-04T12:21:51.352Z,39.04
2023-05-04T12:24:18.090Z,39.92
2023-05-04T12:26:44.153Z,39.59
2023-05-04T12:29:10.313Z,39.94
2023-05-04T12:31:36.467Z,39.28
2023-05-04T12:34:02.524Z,38.91
2023-05-04T12:36:28.599Z,38.61
2023-05-04T12:38:54.703Z,39.45
2023-05-04T12:41:20.808Z,39.91
2023-05-04T12:43:46.860Z,38.75
2023-05-04T12:46:13.028Z,38.88
2023-05-04T12:48:39.636Z,38.83
2023-05-04T12:51:05.797Z,39.04
2023-05-04T12:53:32.000Z,39.26
2023-05-04T12:55:58.990Z,39.06
2023-05-04T12:58:25.302Z,39.56
2023-05-04T13:00:51.432Z,38.77
2023-05-04T13:03:17.930Z,38.26
2023-05-04T13:05:48.916Z,36.99
2023-05-04T13:08:16.469Z,38.44
2023-05-04T13:10:42.914Z,37.30
2023-05-04T13:13:09.114Z,38.45
2023-05-04T13:15:35.318Z,38.27
2023-05-04T13:18:01.512Z,38.41
2023-05-04T13:20:27.701Z,38.05
2023-05-04T13:22:56.184Z,38.29
2023-05-04T13:25:24.855Z,37.28
2023-05-04T13:27:51.147Z,37.68
2023-05-04T13:30:17.630Z,37.28
2023-05-04T13:32:43.771Z,37.57
2023-05-04T13:35:09.988Z,37.06
2023-05-04T13:37:37.460Z,36.99
2023-05-04T13:40:04.376Z,36.52
2023-05-04T13:42:30.569Z,36.39
2023-05-04T13:44:56.676Z,36.64
2023-05-04T13:47:23.755Z,36.43
2023-05-04T13:49:50.267Z,36.74
2023-05-04T13:52:16.385Z,37.41
2023-05-04T13:54:42.512Z,36.40
2023-05-04T13:57:08.599Z,36.42
2023-05-04T13:59:34.692Z,36.47
2023-05-04T14:02:00.849Z,34.62
2023-05-04T14:04:26.968Z,35.80
2023-05-04T14:06:53.553Z,35.95
2023-05-04T14:09:19.805Z,36.55
2023-05-04T14:11:46.531Z,35.51
2023-05-04T14:14:12.861Z,35.58
2023-05-04T14:16:39.247Z,35.35
2023-05-04T14:19:05.496Z,35.22
2023-05-04T14:21:31.620Z,35.01
2023-05-04T14:23:57.707Z,34.98
2023-05-04T14:26:23.790Z,35.69
2023-05-04T14:28:50.093Z,35.68
2023-05-04T14:31:16.151Z,35.38
2023-05-04T14:33:42.346Z,35.96
2023-05-04T14:36:10.200Z,35.77
2023-05-04T14:38:36.344Z,35.21
2023-05-04T14:41:03.715Z,35.21
2023-05-04T14:43:29.801Z,35.57
2023-05-04T14:45:56.476Z,35.77
2023-05-04T14:48:25.200Z,35.55
2023-05-04T14:50:52.471Z,35.51
2023-05-04T14:53:18.701Z,35.68
2023-05-04T14:55:45.010Z,35.57
2023-05-04T14:58:11.366Z,35.65
2023-05-04T15:00:37.665Z,35.59
2023-05-04T15:03:04.312Z,35.29
2023-05-04T15:05:30.436Z,35.68
2023-05-04T15:07:56.589Z,36.16
2023-05-04T15:10:24.020Z,35.91
2023-05-04T15:12:50.631Z,35.29
2023-05-04T15:15:16.958Z,35.71
2023-05-04T15:17:43.071Z,35.47
2023-05-04T15:20:10.373Z,35.09
2023-05-04T15:22:36.726Z,35.93
2023-05-04T15:25:03.406Z,36.26
2023-05-04T15:27:29.466Z,35.64
2023-05-04T15:29:55.528Z,35.94
2023-05-04T15:32:21.639Z,35.48
2023-05-04T15:35:01.166Z,34.89
2023-05-04T15:37:31.074Z,35.18
2023-05-04T15:39:58.183Z,34.02
2023-05-04T15:42:25.201Z,33.58
2023-05-04T15:44:52.297Z,33.45
2023-05-04T15:47:18.389Z,33.77
2023-05-04T15:49:44.439Z,33.84
2023-05-04T15:52:10.524Z,34.17
2023-05-04T15:54:36.646Z,34.66
2023-05-04T15:57:02.786Z,35.52
2023-05-04T15:59:28.848Z,35.86
2023-05-04T16:01:54.964Z,35.56
2023-05-04T16:04:21.888Z,35.57
2023-05-04T16:06:48.040Z,35.20
2023-05-04T16:09:19.465Z,34.93
2023-05-04T16:11:45.667Z,35.53
2023-05-04T16:14:11.730Z,35.46
2023-05-04T16:16:37.896Z,34.69
2023-05-04T16:19:19.248Z,34.99
2023-05-04T16:21:45.494Z,35.08
2023-05-04T16:24:12.901Z,34.92
2023-05-04T16:26:39.817Z,36.50
2023-05-04T16:29:06.161Z,37.59
2023-05-04T16:31:32.321Z,37.77
2023-05-04T16:33:58.445Z,38.39
2023-05-04T16:36:24.529Z,39.09
2023-05-04T16:38:50.776Z,38.79
2023-05-04T16:41:17.381Z,40.02
2023-05-04T16:43:43.510Z,38.95
2023-05-04T16:46:09.817Z,40.66
2023-05-04T16:48:37.341Z,39.78
2023-05-04T16:51:07.517Z,39.04
2023-05-04T16:53:34.440Z,40.68
2023-05-04T16:56:00.857Z,40.21
2023-05-04T16:58:27.649Z,39.93
2023-05-04T17:00:53.896Z,39.92
2023-05-04T17:03:20.044Z,40.44
2023-05-04T17:05:46.690Z,40.73
2023-05-04T17:08:12.955Z,40.95
2023-05-04T17:10:39.239Z,40.76
2023-05-04T17:13:06.501Z,41.44
2023-05-04T17:15:32.643Z,40.90
2023-05-04T17:17:59.898Z,41.07
2023-05-04T17:20:30.998Z,41.67
2023-05-04T17:22:57.898Z,41.74
2023-05-04T17:25:25.821Z,42.40
2023-05-04T17:27:52.924Z,42.02
2023-05-04T17:30:19.004Z,43.37
2023-05-04T17:32:45.096Z,43.00
2023-05-04T17:35:20.971Z,43.69
2023-05-04T17:37:51.262Z,43.07
2023-05-04T17:40:17.318Z,43.78
2023-05-04T17:42:43.472Z,43.70
2023-05-04T17:45:09.954Z,44.07
2023-05-04T17:47:36.080Z,43.56
2023-05-04T17:50:02.698Z,43.51
2023-05-04T17:52:28.768Z,43.56
2023-05-04T17:54:55.031Z,43.46
2023-05-04T17:57:21.205Z,43.78
2023-05-04T17:59:47.427Z,44.25
2023-05-04T18:02:13.596Z,45.37
2023-05-04T18:04:39.779Z,45.77
2023-05-04T18:07:05.837Z,47.29
2023-05-04T18:09:31.935Z,48.24
2023-05-04T18:11:58.078Z,47.73
2023-05-04T18:14:24.133Z,48.43
2023-05-04T18:16:50.381Z,48.97
2023-05-04T18:19:23.028Z,48.83
2023-05-04T18:21:52.792Z,48.88
2023-05-04T18:24:19.290Z,49.42
2023-05-04T18:26:46.034Z,48.73
2023-05-04T18:31:43.741Z,50.14
2023-05-04T18:34:09.828Z,50.78
2023-05-04T18:36:35.946Z,49.41
2023-05-04T18:39:02.147Z,50.92
2023-05-04T18:41:28.263Z,51.33
2023-05-04T18:43:55.339Z,51.96
2023-05-04T18:46:22.425Z,50.79
2023-05-04T18:48:49.438Z,51.03
2023-05-04T18:51:15.585Z,51.21
2023-05-04T18:53:41.764Z,50.60
2023-05-04T18:56:09.025Z,51.02
2023-05-04T18:58:36.281Z,50.61
2023-05-04T19:01:02.857Z,50.69
2023-05-04T19:03:28.980Z,50.70
2023-05-04T19:05:55.474Z,50.58
2023-05-04T19:08:21.668Z,50.63
2023-05-04T19:10:48.487Z,51.14
2023-05-04T19:13:15.456Z,50.55
2023-05-04T19:15:42.413Z,51.94
2023-05-04T19:18:08.617Z,51.25
2023-05-04T19:20:38.256Z,52.02
2023-05-04T19:23:04.421Z,51.32
2023-05-04T19:25:34.808Z,51.48
2023-05-04T19:28:08.168Z,52.05
2023-05-04T19:30:38.812Z,52.43
2023-05-04T19:33:06.114Z,51.99
2023-05-04T19:35:32.338Z,52.29
2023-05-04T19:38:00.851Z,53.39
2023-05-04T19:40:26.962Z,54.16
2023-05-04T19:42:53.023Z,54.19
2023-05-04T19:45:19.158Z,55.66
2023-05-04T19:47:45.482Z,57.16
2023-05-04T19:50:13.296Z,58.25
2023-05-04T19:52:39.428Z,60.20
2023-05-04T19:55:06.599Z,60.37
2023-05-04T19:57:32.806Z,65.19
2023-05-04T19:59:59.012Z,65.75
2023-05-04T20:02:25.361Z,65.00
2023-05-04T20:04:51.533Z,67.15
2023-05-04T20:07:17.594Z,70.19
2023-05-04T20:09:43.667Z,68.21
2023-05-04T20:12:10.551Z,67.59
2023-05-04T20:14:36.832Z,69.95
2023-05-04T20:17:03.116Z,69.73
2023-05-04T20:19:29.242Z,67.86
2023-05-04T20:21:55.322Z,67.75
2023-05-04T20:24:21.630Z,67.81
2023-05-04T20:26:47.687Z,78.34
2023-05-04T20:29:13.747Z,73.05
2023-05-04T20:31:40.606Z,72.45
2023-05-04T20:34:06.825Z,71.87
2023-05-04T20:36:33.519Z,73.25
2023-05-04T20:39:01.700Z,71.37
2023-05-04T20:41:28.006Z,72.21
2023-05-04T20:43:54.072Z,71.49
2023-05-04T20:46:20.311Z,72.37
2023-05-04T20:48:46.411Z,72.62
2023-05-04T20:51:14.390Z,74.51
2023-05-04T20:53:41.465Z,78.12
2023-05-04T20:56:07.559Z,74.07
2023-05-04T20:58:33.689Z,73.77
2023-05-04T21:01:03.736Z,74.27
2023-05-04T21:03:30.034Z,75.86
2023-05-04T21:05:56.702Z,75.14
2023-05-04T21:08:22.969Z,74.01
2023-05-04T21:10:49.186Z,73.89
2023-05-04T21:13:15.312Z,76.15
2023-05-04T21:15:41.403Z,79.55
2023-05-04T21:18:07.468Z,81.51
2023-05-04T21:20:33.552Z,78.99
2023-05-04T21:23:00.423Z,79.05
2023-05-04T21:25:26.469Z,80.77
2023-05-04T21:27:52.535Z,82.92
2023-05-04T21:30:18.808Z,79.56
2023-05-04T21:32:45.399Z,79.32
2023-05-04T21:35:11.494Z,81.50
2023-05-04T21:37:37.589Z,85.32
2023-05-04T21:40:04.097Z,82.61
2023-05-04T21:42:30.210Z,80.31
2023-05-04T21:44:56.779Z,80.09
2023-05-04T21:47:26.508Z,81.62
2023-05-04T21:49:53.201Z,81.79
2023-05-04T21:52:19.707Z,79.79
2023-05-04T21:54:46.108Z,79.82
2023-05-04T21:57:12.283Z,80.52
2023-05-04T21:59:38.377Z,81.07
2023-05-04T22:02:05.027Z,81.35
2023-05-04T22:04:31.677Z,82.06
2023-05-04T22:06:57.838Z,80.41
2023-05-04T22:09:24.143Z,81.23
2023-05-04T22:11:51.046Z,85.28
2023-05-04T22:14:17.712Z,81.51
2023-05-04T22:16:43.924Z,81.58
2023-05-04T22:19:10.143Z,81.86
2023-05-04T22:21:38.617Z,81.78
2023-05-04T22:24:06.277Z,83.56
2023-05-04T22:26:32.366Z,82.94
2023-05-04T22:28:59.002Z,83.31
2023-05-04T22:31:25.199Z,82.86
2023-05-04T22:33:51.379Z,84.56
2023-05-04T22:36:17.467Z,84.79
2023-05-04T22:38:43.532Z,83.29
2023-05-04T22:41:09.589Z,83.15
2023-05-04T22:43:35.713Z,83.15
2023-05-04T22:46:01.968Z,83.60
2023-05-04T22:48:28.144Z,84.08
2023-05-04T22:50:55.122Z,82.92
2023-05-04T22:53:21.424Z,83.21
2023-05-04T22:55:47.557Z,82.69
2023-05-04T22:58:13.642Z,86.15
2023-05-04T23:00:39.779Z,83.96
2023-05-04T23:03:06.858Z,91.65
2023-05-04T23:05:33.024Z,90.00
2023-05-04T23:07:59.068Z,87.17
2023-05-04T23:10:25.443Z,84.42
2023-05-04T23:12:51.552Z,85.39
2023-05-04T23:15:17.649Z,85.42
2023-05-04T23:17:43.768Z,87.47
2023-05-04T23:20:10.645Z,86.40
2023-05-04T23:22:36.844Z,89.44
2023-05-04T23:25:03.587Z,90.44
2023-05-04T23:27:29.624Z,86.83
2023-05-04T23:29:55.667Z,87.43
2023-05-04T23:32:21.775Z,86.55
2023-05-04T23:34:47.840Z,86.54
2023-05-04T23:37:14.486Z,89.24
2023-05-04T23:39:40.555Z,88.25
2023-05-04T23:42:06.640Z,90.52
2023-05-04T23:44:32.719Z,94.94
2023-05-04T23:46:58.778Z,91.85
2023-05-04T23:49:25.243Z,89.48
2023-05-04T23:51:52.128Z,87.45
2023-05-04T23:54:18.183Z,88.82
2023-05-04T23:56:44.256Z,88.42
2023-05-04T23:59:10.319Z,88.12
